createdAt,value
2017-06-29T00:01:35.802Z,17.30
2017-06-29T00:04:03.780Z,17.20
2017-06-29T00:06:31.412Z,17.20
2017-06-29T00:08:59.125Z,17.20
2017-06-29T00:11:27.547Z,17.30
2017-06-29T00:13:55.302Z,17.20
2017-06-29T00:16:23.251Z,17.30
2017-06-29T00:18:50.898Z,17.20
2017-06-29T00:21:18.550Z,17.30
2017-06-29T00:23:46.233Z,17.20
2017-06-29T00:26:13.878Z,17.30
2017-06-29T00:28:42.607Z,17.30
2017-06-29T00:31:10.259Z,17.30
2017-06-29T00:33:37.912Z,17.30
2017-06-29T00:36:05.776Z,17.30
2017-06-29T00:38:33.430Z,17.20
2017-06-29T00:41:01.361Z,17.10
2017-06-29T00:43:29.003Z,17.20
2017-06-29T00:45:56.703Z,17.30
2017-06-29T00:48:24.391Z,17.30
2017-06-29T00:50:52.023Z,17.30
2017-06-29T00:53:19.989Z,17.30
2017-06-29T00:55:47.641Z,17.30
2017-06-29T00:58:15.441Z,17.20
2017-06-29T01:00:43.107Z,17.20
2017-06-29T01:03:10.744Z,17.20
2017-06-29T01:05:38.731Z,17.30
2017-06-29T01:08:06.460Z,17.30
2017-06-29T01:10:34.101Z,17.30
2017-06-29T01:13:01.776Z,17.30
2017-06-29T01:15:29.415Z,17.40
2017-06-29T01:17:57.778Z,17.40
2017-06-29T01:20:25.468Z,17.50
2017-06-29T01:22:53.102Z,17.40
2017-06-29T01:25:20.785Z,17.40
2017-06-29T01:27:48.437Z,17.40
2017-06-29T01:30:16.360Z,17.30
2017-06-29T01:32:44.005Z,17.30
2017-06-29T01:35:11.651Z,17.40
2017-06-29T01:37:39.322Z,17.40
2017-06-29T01:40:06.972Z,17.50
2017-06-29T01:42:34.948Z,17.50
2017-06-29T01:45:02.601Z,17.50
2017-06-29T01:47:30.811Z,17.50
2017-06-29T01:49:58.485Z,17.70
2017-06-29T01:52:26.123Z,17.80
2017-06-29T01:54:54.121Z,17.90
2017-06-29T01:57:21.773Z,17.90
2017-06-29T01:59:49.431Z,17.80
2017-06-29T02:02:17.109Z,17.80
2017-06-29T02:04:45.582Z,17.70
2017-06-29T02:07:13.547Z,17.70
2017-06-29T02:09:41.205Z,17.70
2017-06-29T02:12:08.853Z,17.70
2017-06-29T02:14:36.570Z,17.60
2017-06-29T02:17:04.994Z,17.80
2017-06-29T02:19:32.948Z,17.70
2017-06-29T02:22:00.587Z,17.50
2017-06-29T02:24:28.235Z,17.50
2017-06-29T02:26:55.908Z,17.60
2017-06-29T02:29:23.554Z,17.60
2017-06-29T02:31:51.598Z,17.60
2017-06-29T02:34:19.238Z,17.60
2017-06-29T02:36:46.888Z,17.60
2017-06-29T02:39:14.572Z,17.50
2017-06-29T02:41:42.989Z,17.50
2017-06-29T02:44:10.938Z,17.40
2017-06-29T02:46:38.614Z,17.50
2017-06-29T02:49:06.258Z,17.60
2017-06-29T02:51:33.931Z,17.60
2017-06-29T02:54:01.576Z,17.60
2017-06-29T02:56:29.519Z,17.70
2017-06-29T02:58:57.171Z,17.70
2017-06-29T03:01:24.812Z,17.70
2017-06-29T03:03:53.367Z,17.80
2017-06-29T03:06:21.003Z,17.80
2017-06-29T03:08:48.936Z,17.90
2017-06-29T03:11:16.703Z,17.90
2017-06-29T03:13:44.344Z,18.00
2017-06-29T03:16:12.010Z,18.10
2017-06-29T03:18:39.662Z,18.20
2017-06-29T03:21:07.688Z,18.10
2017-06-29T03:23:35.532Z,18.10
2017-06-29T03:26:03.172Z,18.20
2017-06-29T03:28:30.849Z,18.10
2017-06-29T03:30:58.496Z,18.10
2017-06-29T03:33:26.539Z,18.10
2017-06-29T03:35:54.169Z,18.10
2017-06-29T03:38:21.810Z,18.10
2017-06-29T03:40:49.497Z,18.10
2017-06-29T03:43:17.162Z,18.10
2017-06-29T03:45:45.454Z,18.10
2017-06-29T03:48:13.100Z,18.10
2017-06-29T03:50:40.755Z,18.20
2017-06-29T03:53:08.435Z,18.20
2017-06-29T03:55:36.078Z,18.10
2017-06-29T03:58:04.043Z,18.10
2017-06-29T04:00:31.691Z,18.20
2017-06-29T04:02:59.368Z,18.20
2017-06-29T04:05:27.040Z,18.20
2017-06-29T04:07:54.677Z,18.20
2017-06-29T04:10:22.875Z,18.20
2017-06-29T04:13:02.255Z,18.30
2017-06-29T04:15:32.450Z,18.30
2017-06-29T04:18:00.310Z,18.20
2017-06-29T04:20:28.154Z,18.30
2017-06-29T04:22:56.601Z,18.30
2017-06-29T04:25:24.257Z,18.20
2017-06-29T04:27:52.990Z,18.30
2017-06-29T04:30:20.678Z,18.30
2017-06-29T04:32:49.076Z,18.40
2017-06-29T04:35:16.868Z,18.40
2017-06-29T04:37:44.508Z,18.40
2017-06-29T04:40:12.444Z,18.40
2017-06-29T04:42:40.082Z,18.50
2017-06-29T04:45:07.735Z,18.50
2017-06-29T04:47:35.430Z,18.50
2017-06-29T04:50:03.853Z,18.70
2017-06-29T04:52:31.817Z,18.60
2017-06-29T04:54:59.503Z,18.60
2017-06-29T04:57:27.149Z,18.70
2017-06-29T04:59:55.697Z,18.70
2017-06-29T05:02:23.352Z,18.60
2017-06-29T05:04:52.078Z,18.80
2017-06-29T05:07:19.732Z,18.70
2017-06-29T05:09:47.399Z,18.80
2017-06-29T05:12:15.113Z,18.90
2017-06-29T05:14:42.764Z,18.80
2017-06-29T05:17:10.772Z,18.90
2017-06-29T05:19:38.434Z,19.00
2017-06-29T05:22:06.064Z,19.00
2017-06-29T05:24:34.506Z,19.00
2017-06-29T05:27:02.152Z,19.00
2017-06-29T05:29:30.226Z,19.00
2017-06-29T05:31:57.870Z,19.10
2017-06-29T05:34:25.557Z,19.10
2017-06-29T05:36:53.260Z,19.10
2017-06-29T05:39:20.904Z,19.10
2017-06-29T05:41:48.841Z,19.10
2017-06-29T05:44:16.527Z,19.10
2017-06-29T05:46:45.016Z,19.10
2017-06-29T05:49:12.678Z,19.00
2017-06-29T05:51:40.330Z,19.10
2017-06-29T05:54:08.252Z,19.10
2017-06-29T05:56:35.936Z,19.10
2017-06-29T05:59:03.571Z,19.10
2017-06-29T06:01:32.161Z,19.10
2017-06-29T06:03:59.794Z,19.10
2017-06-29T06:06:27.717Z,19.10
2017-06-29T06:08:55.462Z,19.10
2017-06-29T06:11:23.864Z,19.10
2017-06-29T06:13:51.561Z,19.00
2017-06-29T06:16:19.209Z,19.10
2017-06-29T06:18:48.032Z,19.00
2017-06-29T06:21:15.819Z,18.90
2017-06-29T06:23:43.473Z,18.90
2017-06-29T06:26:11.195Z,18.90
2017-06-29T06:28:38.839Z,18.90
2017-06-29T06:31:06.781Z,18.90
2017-06-29T06:33:34.438Z,18.90
2017-06-29T06:36:02.096Z,18.90
2017-06-29T06:38:29.773Z,18.90
2017-06-29T06:40:58.203Z,18.90
2017-06-29T06:43:26.183Z,18.80
2017-06-29T06:45:54.586Z,18.80
2017-06-29T06:48:22.255Z,18.70
2017-06-29T06:50:49.967Z,18.80
2017-06-29T06:53:17.623Z,18.80
2017-06-29T06:55:45.819Z,18.80
2017-06-29T06:58:13.469Z,18.80
2017-06-29T07:00:42.662Z,18.90
2017-06-29T07:03:10.325Z,19.00
2017-06-29T07:05:37.970Z,19.10
2017-06-29T07:08:06.828Z,19.20
2017-06-29T07:10:34.458Z,19.10
2017-06-29T07:13:02.092Z,19.20
2017-06-29T07:15:29.766Z,19.20
2017-06-29T07:17:57.437Z,19.30
2017-06-29T07:20:26.266Z,19.30
2017-06-29T07:22:53.916Z,19.30
2017-06-29T07:25:21.572Z,19.30
2017-06-29T07:27:49.239Z,19.30
2017-06-29T07:30:17.018Z,19.30
2017-06-29T07:32:45.012Z,19.40
2017-06-29T07:35:12.646Z,19.30
2017-06-29T07:37:40.415Z,19.30
2017-06-29T07:40:08.096Z,19.30
2017-06-29T07:42:35.916Z,19.30
2017-06-29T07:45:03.860Z,19.50
2017-06-29T07:47:31.537Z,19.40
2017-06-29T07:49:59.185Z,19.40
2017-06-29T07:52:27.811Z,19.40
2017-06-29T07:54:55.545Z,19.40
2017-06-29T07:57:23.466Z,19.40
2017-06-29T07:59:51.121Z,19.50
2017-06-29T08:02:18.762Z,19.50
2017-06-29T08:04:47.196Z,19.70
2017-06-29T08:07:14.872Z,19.60
2017-06-29T08:09:43.001Z,19.80
2017-06-29T08:12:10.626Z,19.90
2017-06-29T08:14:38.267Z,20.10
2017-06-29T08:17:06.010Z,20.10
2017-06-29T08:19:33.637Z,20.10
2017-06-29T08:22:01.575Z,20.10
2017-06-29T08:24:30.001Z,20.00
2017-06-29T08:26:57.642Z,19.90
2017-06-29T08:29:25.416Z,20.00
2017-06-29T08:31:53.040Z,19.90
2017-06-29T08:34:20.965Z,19.90
2017-06-29T08:36:48.583Z,19.90
2017-06-29T08:39:16.257Z,20.00
2017-06-29T08:41:44.736Z,20.00
2017-06-29T08:44:12.606Z,20.00
2017-06-29T08:46:40.567Z,20.00
2017-06-29T08:49:08.192Z,20.10
2017-06-29T08:51:35.976Z,20.20
2017-06-29T08:54:03.618Z,20.30
2017-06-29T08:56:31.232Z,20.30
2017-06-29T08:58:59.182Z,20.50
2017-06-29T09:01:26.809Z,20.70
2017-06-29T09:03:55.196Z,20.80
2017-06-29T09:06:22.842Z,20.70
2017-06-29T09:08:50.481Z,20.80
2017-06-29T09:11:18.456Z,20.90
2017-06-29T09:13:46.072Z,20.80
2017-06-29T09:16:14.442Z,20.70
2017-06-29T09:18:42.854Z,20.50
2017-06-29T09:21:10.472Z,20.40
2017-06-29T09:23:38.375Z,20.40
2017-06-29T09:26:06.010Z,20.30
2017-06-29T09:28:33.644Z,20.20
2017-06-29T09:31:01.292Z,20.20
2017-06-29T09:33:28.956Z,20.10
2017-06-29T09:35:57.702Z,19.90
2017-06-29T09:38:25.479Z,19.90
2017-06-29T09:40:53.135Z,19.80
2017-06-29T09:43:20.879Z,19.80
2017-06-29T09:45:48.506Z,19.80
2017-06-29T09:48:16.415Z,19.80
2017-06-29T09:50:44.076Z,19.80
2017-06-29T09:53:11.694Z,19.80
2017-06-29T09:55:39.386Z,19.80
2017-06-29T09:58:07.028Z,19.80
2017-06-29T10:00:35.060Z,19.80
2017-06-29T10:03:02.758Z,19.80
2017-06-29T10:05:31.177Z,19.70
2017-06-29T10:07:58.857Z,19.70
2017-06-29T10:10:26.542Z,19.60
2017-06-29T10:12:54.541Z,19.60
2017-06-29T10:15:23.802Z,19.50
2017-06-29T10:17:51.449Z,19.40
2017-06-29T10:20:19.133Z,19.40
2017-06-29T10:22:46.870Z,19.40
2017-06-29T10:25:14.920Z,19.30
2017-06-29T10:27:43.384Z,19.20
2017-06-29T10:30:11.019Z,19.10
2017-06-29T10:32:38.686Z,19.10
2017-06-29T10:35:06.483Z,19.00
2017-06-29T10:37:34.479Z,18.90
2017-06-29T10:40:02.122Z,18.80
2017-06-29T10:42:29.758Z,18.80
2017-06-29T10:44:57.416Z,18.60
2017-06-29T10:47:25.269Z,18.60
2017-06-29T10:49:53.374Z,18.60
2017-06-29T10:52:21.789Z,18.70
2017-06-29T10:54:49.422Z,18.60
2017-06-29T10:57:17.088Z,18.70
2017-06-29T10:59:44.745Z,18.70
2017-06-29T11:02:12.888Z,18.60
2017-06-29T11:04:40.540Z,18.60
2017-06-29T11:07:08.179Z,18.60
2017-06-29T11:09:35.926Z,18.50
2017-06-29T11:12:03.576Z,18.40
2017-06-29T11:14:31.535Z,18.30
2017-06-29T11:16:59.183Z,18.30
2017-06-29T11:19:27.819Z,18.20
2017-06-29T11:21:55.843Z,18.10
2017-06-29T11:24:23.486Z,18.00
2017-06-29T11:26:51.443Z,18.00
2017-06-29T11:29:19.848Z,18.00
2017-06-29T11:31:47.492Z,17.90
2017-06-29T11:34:15.344Z,17.90
2017-06-29T11:36:42.986Z,17.90
2017-06-29T11:39:10.934Z,17.90
2017-06-29T11:41:38.583Z,17.80
2017-06-29T11:44:06.324Z,17.90
2017-06-29T11:46:33.997Z,17.80
2017-06-29T11:49:01.646Z,17.80
2017-06-29T11:51:29.647Z,17.80
2017-06-29T11:53:57.278Z,17.90
2017-06-29T11:56:24.963Z,17.80
2017-06-29T11:58:52.692Z,17.90
2017-06-29T12:01:21.104Z,17.80
2017-06-29T12:03:49.038Z,17.80
2017-06-29T12:06:16.879Z,17.90
2017-06-29T12:08:44.520Z,17.90
2017-06-29T12:11:12.208Z,17.90
2017-06-29T12:13:39.855Z,17.90
2017-06-29T12:16:07.920Z,17.80
2017-06-29T12:18:35.760Z,17.80
2017-06-29T12:21:03.409Z,17.70
2017-06-29T12:23:31.088Z,17.80
2017-06-29T12:25:58.752Z,17.80
2017-06-29T12:28:26.766Z,17.70
2017-06-29T12:30:54.403Z,17.70
2017-06-29T12:33:22.053Z,17.60
2017-06-29T12:35:49.730Z,17.60
2017-06-29T12:38:17.380Z,17.50
2017-06-29T12:40:45.450Z,17.50
2017-06-29T12:43:13.858Z,17.50
2017-06-29T12:45:41.498Z,17.50
2017-06-29T12:48:09.171Z,17.50
2017-06-29T12:50:36.917Z,17.50
2017-06-29T12:53:05.006Z,17.60
2017-06-29T12:55:32.655Z,17.60
2017-06-29T12:58:01.140Z,17.60
2017-06-29T13:00:28.835Z,17.50
2017-06-29T13:02:56.523Z,17.60
2017-06-29T13:05:25.444Z,17.60
2017-06-29T13:07:53.164Z,17.50
2017-06-29T13:10:20.867Z,17.50
2017-06-29T13:12:48.564Z,17.50
2017-06-29T13:15:16.231Z,17.50
2017-06-29T13:17:44.198Z,17.50
2017-06-29T13:20:11.867Z,17.50
2017-06-29T13:22:39.827Z,17.50
2017-06-29T13:25:07.508Z,17.40
2017-06-29T13:27:35.167Z,17.40
2017-06-29T13:30:03.151Z,17.30
2017-06-29T13:32:30.811Z,17.30
2017-06-29T13:34:58.464Z,17.30
2017-06-29T13:37:26.143Z,17.20
2017-06-29T13:39:54.538Z,17.20
2017-06-29T13:42:22.507Z,17.10
2017-06-29T13:44:50.166Z,17.10
2017-06-29T13:47:17.825Z,17.20
2017-06-29T13:49:45.523Z,17.20
2017-06-29T13:52:13.172Z,17.20
2017-06-29T13:54:41.163Z,17.20
2017-06-29T13:57:08.810Z,17.20
2017-06-29T13:59:36.538Z,17.20
2017-06-29T14:02:04.196Z,17.30
2017-06-29T14:04:31.837Z,17.30
2017-06-29T14:06:59.824Z,17.30
2017-06-29T14:09:27.470Z,17.30
2017-06-29T14:11:55.123Z,17.20
2017-06-29T14:14:22.831Z,17.20
2017-06-29T14:16:50.553Z,17.20
2017-06-29T14:19:18.505Z,17.20
2017-06-29T14:21:46.152Z,17.10
2017-06-29T14:24:13.822Z,17.10
2017-06-29T14:26:41.564Z,17.10
2017-06-29T14:29:09.204Z,17.10
2017-06-29T14:31:37.280Z,17.10
2017-06-29T14:34:04.976Z,17.10
2017-06-29T14:36:32.620Z,17.10
2017-06-29T14:39:00.359Z,17.10
2017-06-29T14:41:27.981Z,17.20
2017-06-29T14:43:55.980Z,17.20
2017-06-29T14:46:23.615Z,17.20
2017-06-29T14:48:52.611Z,17.20
2017-06-29T14:51:20.327Z,17.10
2017-06-29T14:53:48.062Z,17.20
2017-06-29T14:56:16.096Z,17.20
2017-06-29T14:58:43.783Z,17.20
2017-06-29T15:01:11.426Z,17.30
2017-06-29T15:03:41.556Z,17.30
2017-06-29T15:06:09.273Z,17.30
2017-06-29T15:08:37.210Z,17.40
2017-06-29T15:11:04.964Z,17.40
2017-06-29T15:13:32.605Z,17.40
2017-06-29T15:16:00.274Z,17.40
2017-06-29T15:18:28.159Z,17.50
2017-06-29T15:20:56.231Z,17.50
2017-06-29T15:23:23.884Z,17.60
2017-06-29T15:25:51.520Z,17.60
2017-06-29T15:28:19.228Z,17.60
2017-06-29T15:30:47.691Z,17.70
2017-06-29T15:33:15.915Z,17.60
2017-06-29T15:35:43.551Z,17.70
2017-06-29T15:38:11.275Z,17.60
2017-06-29T15:40:40.688Z,17.60
2017-06-29T15:43:08.386Z,17.70
2017-06-29T15:45:36.439Z,17.70
2017-06-29T15:48:04.114Z,17.70
2017-06-29T15:50:31.801Z,17.80
2017-06-29T15:52:59.490Z,17.80
2017-06-29T15:55:27.355Z,17.80
2017-06-29T15:57:56.347Z,17.80
2017-06-29T16:00:24.006Z,17.80
2017-06-29T16:02:51.648Z,17.70
2017-06-29T16:05:19.312Z,17.70
2017-06-29T16:07:46.953Z,17.70
2017-06-29T16:10:15.116Z,17.70
2017-06-29T16:12:42.751Z,17.50
2017-06-29T16:15:10.428Z,17.40
2017-06-29T16:17:38.102Z,17.20
2017-06-29T16:20:05.783Z,17.10
2017-06-29T16:22:33.764Z,17.00
2017-06-29T16:25:01.392Z,16.90
2017-06-29T16:27:29.027Z,16.80
2017-06-29T16:29:56.684Z,16.90
2017-06-29T16:32:25.166Z,16.90
2017-06-29T16:34:53.094Z,16.80
2017-06-29T16:37:20.740Z,16.80
2017-06-29T16:39:48.364Z,16.70
2017-06-29T16:42:16.068Z,16.60
2017-06-29T16:44:43.774Z,16.60
2017-06-29T16:47:12.455Z,16.60
2017-06-29T16:49:40.107Z,16.50
2017-06-29T16:52:07.757Z,16.60
2017-06-29T16:54:35.466Z,16.50
2017-06-29T16:57:04.055Z,16.50
2017-06-29T16:59:33.002Z,16.50
2017-06-29T17:02:00.792Z,16.60
2017-06-29T17:04:28.424Z,16.60
2017-06-29T17:06:56.964Z,16.60
2017-06-29T17:09:25.433Z,16.50
2017-06-29T17:11:53.352Z,16.50
2017-06-29T17:14:21.058Z,16.40
2017-06-29T17:16:48.752Z,16.40
2017-06-29T17:19:16.468Z,16.40
2017-06-29T17:21:44.139Z,16.40
2017-06-29T17:24:12.073Z,16.40
2017-06-29T17:26:40.155Z,16.40
2017-06-29T17:29:07.786Z,16.40
2017-06-29T17:31:35.493Z,16.40
2017-06-29T17:34:03.177Z,16.30
2017-06-29T17:36:31.153Z,16.30
2017-06-29T17:38:58.837Z,16.20
2017-06-29T17:41:26.520Z,16.20
2017-06-29T17:43:54.181Z,16.30
2017-06-29T17:46:21.811Z,16.20
2017-06-29T17:48:49.715Z,16.20
2017-06-29T17:51:17.346Z,16.20
2017-06-29T17:53:44.971Z,16.20
2017-06-29T17:56:12.638Z,16.20
2017-06-29T17:58:40.284Z,16.20
2017-06-29T18:01:08.276Z,16.20
2017-06-29T18:03:36.029Z,16.20
2017-06-29T18:06:04.502Z,16.00
2017-06-29T18:08:32.150Z,16.00
2017-06-29T18:11:00.544Z,16.00
2017-06-29T18:13:28.550Z,16.00
2017-06-29T18:15:56.177Z,16.10
2017-06-29T18:18:23.801Z,16.00
2017-06-29T18:20:51.480Z,16.00
2017-06-29T18:23:19.909Z,15.90
2017-06-29T18:25:47.903Z,15.80
2017-06-29T18:28:15.664Z,15.90
2017-06-29T18:30:44.055Z,15.80
2017-06-29T18:33:11.768Z,15.80
2017-06-29T18:35:39.473Z,15.90
2017-06-29T18:38:07.521Z,15.80
2017-06-29T18:40:35.315Z,15.80
2017-06-29T18:43:03.015Z,15.80
2017-06-29T18:45:30.802Z,15.80
2017-06-29T18:47:58.566Z,15.90
2017-06-29T18:50:26.733Z,15.90
2017-06-29T18:52:54.451Z,15.80
2017-06-29T18:55:22.285Z,15.80
2017-06-29T18:57:50.829Z,15.80
2017-06-29T19:00:18.579Z,15.70
2017-06-29T19:02:46.770Z,15.80
2017-06-29T19:05:14.570Z,15.70
2017-06-29T19:07:42.252Z,15.70
2017-06-29T19:10:09.947Z,15.80
2017-06-29T19:12:37.629Z,15.80
2017-06-29T19:15:05.976Z,15.80
2017-06-29T19:17:33.692Z,15.80
2017-06-29T19:20:01.388Z,15.80
2017-06-29T19:22:29.245Z,15.80
2017-06-29T19:24:57.086Z,15.80
2017-06-29T19:27:25.322Z,15.80
2017-06-29T19:29:53.076Z,15.80
2017-06-29T19:32:21.558Z,15.80
2017-06-29T19:34:49.355Z,15.80
2017-06-29T19:37:17.203Z,15.90
2017-06-29T19:39:45.315Z,15.90
2017-06-29T19:42:12.958Z,15.90
2017-06-29T19:44:40.653Z,15.90
2017-06-29T19:47:08.382Z,16.00
2017-06-29T19:49:36.049Z,15.90
2017-06-29T19:52:04.153Z,15.90
2017-06-29T19:54:31.857Z,16.00
2017-06-29T19:56:59.678Z,16.00
2017-06-29T19:59:27.426Z,16.00
2017-06-29T20:01:55.082Z,16.00
2017-06-29T20:04:24.431Z,16.10
2017-06-29T20:06:52.925Z,16.00
2017-06-29T20:09:20.566Z,16.00
2017-06-29T20:11:48.244Z,16.10
2017-06-29T20:14:15.938Z,16.10
2017-06-29T20:16:43.958Z,16.10
2017-06-29T20:19:11.703Z,16.10
2017-06-29T20:21:40.188Z,16.10
2017-06-29T20:24:08.675Z,16.20
2017-06-29T20:26:37.172Z,16.20
2017-06-29T20:29:05.376Z,16.20
2017-06-29T20:31:33.001Z,16.20
2017-06-29T20:34:01.183Z,16.20
2017-06-29T20:36:28.886Z,16.30
2017-06-29T20:38:56.712Z,16.30
2017-06-29T20:41:24.816Z,16.30
2017-06-29T20:43:52.617Z,16.30
2017-06-29T20:46:20.349Z,16.30
2017-06-29T20:48:48.128Z,16.30
2017-06-29T20:51:16.065Z,16.40
2017-06-29T20:53:44.156Z,16.40
2017-06-29T20:56:11.789Z,16.40
2017-06-29T20:58:39.429Z,16.50
2017-06-29T21:01:07.091Z,16.50
2017-06-29T21:03:34.711Z,16.50
2017-06-29T21:06:02.768Z,16.50
2017-06-29T21:08:31.191Z,16.60
2017-06-29T21:10:58.901Z,16.50
2017-06-29T21:13:26.623Z,16.60
2017-06-29T21:15:55.085Z,16.70
2017-06-29T21:18:23.093Z,16.60
2017-06-29T21:20:50.783Z,16.60
2017-06-29T21:23:18.415Z,16.70
2017-06-29T21:25:46.087Z,16.70
2017-06-29T21:28:14.498Z,16.70
2017-06-29T21:30:42.456Z,16.60
2017-06-29T21:33:10.221Z,16.70
2017-06-29T21:35:37.860Z,16.70
2017-06-29T21:38:05.659Z,16.60
2017-06-29T21:40:33.334Z,16.70
2017-06-29T21:43:01.689Z,16.70
2017-06-29T21:45:29.327Z,16.70
2017-06-29T21:47:57.016Z,16.70
2017-06-29T21:50:24.677Z,16.60
2017-06-29T21:52:52.655Z,16.60
2017-06-29T21:55:20.584Z,16.60
2017-06-29T21:57:48.222Z,16.70
2017-06-29T22:00:16.027Z,16.70
2017-06-29T22:02:43.692Z,16.70
2017-06-29T22:05:11.311Z,16.70
2017-06-29T22:07:39.324Z,16.70
2017-06-29T22:10:07.007Z,16.70
2017-06-29T22:12:35.481Z,16.70
2017-06-29T22:15:03.202Z,16.60
2017-06-29T22:17:30.877Z,16.70
2017-06-29T22:19:59.131Z,16.70
2017-06-29T22:22:26.881Z,16.70
2017-06-29T22:24:54.512Z,16.70
2017-06-29T22:27:22.930Z,16.60
2017-06-29T22:29:50.629Z,16.60
2017-06-29T22:32:19.348Z,16.60
2017-06-29T22:34:46.985Z,16.50
2017-06-29T22:37:14.628Z,16.60
2017-06-29T22:39:42.351Z,16.60
2017-06-29T22:42:10.078Z,16.50
2017-06-29T22:44:38.090Z,16.50
2017-06-29T22:47:05.905Z,16.50
2017-06-29T22:49:34.305Z,16.50
2017-06-29T22:52:01.964Z,16.40
2017-06-29T22:54:29.583Z,16.50
2017-06-29T22:56:57.508Z,16.40
2017-06-29T22:59:25.903Z,16.50
2017-06-29T23:01:53.532Z,16.40
2017-06-29T23:04:21.197Z,16.40
2017-06-29T23:06:48.834Z,16.40
2017-06-29T23:09:16.902Z,16.40
2017-06-29T23:11:44.544Z,16.40
2017-06-29T23:14:12.167Z,16.40
2017-06-29T23:16:40.380Z,16.50
2017-06-29T23:19:08.003Z,16.40
2017-06-29T23:21:35.947Z,16.30
2017-06-29T23:24:03.574Z,16.30
2017-06-29T23:26:31.199Z,16.30
2017-06-29T23:28:58.856Z,16.30
2017-06-29T23:31:27.267Z,16.30
2017-06-29T23:33:55.435Z,16.30
2017-06-29T23:36:23.060Z,16.30
2017-06-29T23:38:51.096Z,16.30
2017-06-29T23:41:19.598Z,16.20
2017-06-29T23:43:47.274Z,16.20
2017-06-29T23:46:15.456Z,16.30
2017-06-29T23:48:43.846Z,16.20
2017-06-29T23:51:11.484Z,16.20
2017-06-29T23:53:39.160Z,16.20
2017-06-29T23:56:06.873Z,16.30
2017-06-29T23:58:35.050Z,16.30
